createdAt,value
2023-04-12T00:00:02.674Z,12.36
2023-04-12T00:02:35.740Z,12.52
2023-04-12T00:05:10.371Z,12.54
2023-04-12T00:07:42.903Z,12.54
2023-04-12T00:10:15.081Z,12.48
2023-04-12T00:12:47.426Z,12.56
2023-04-12T00:15:19.534Z,12.49
2023-04-12T00:17:51.624Z,12.47
2023-04-12T00:20:24.533Z,12.48
2023-04-12T00:22:57.696Z,12.43
2023-04-12T00:25:29.785Z,12.41
2023-04-12T00:28:01.693Z,12.39
2023-04-12T00:30:33.792Z,12.42
2023-04-12T00:33:05.758Z,12.38
2023-04-12T00:35:37.716Z,12.42
2023-04-12T00:38:10.985Z,12.38
2023-04-12T00:40:43.983Z,12.38
2023-04-12T00:43:18.430Z,12.39
2023-04-12T00:45:51.188Z,12.27
2023-04-12T00:48:26.428Z,12.38
2023-04-12T00:50:58.509Z,12.35
2023-04-12T00:53:31.391Z,12.29
2023-04-12T00:56:04.301Z,12.29
2023-04-12T00:58:36.594Z,12.32
2023-04-12T01:01:10.587Z,12.25
2023-04-12T01:03:43.783Z,12.30
2023-04-12T01:07:03.681Z,12.28
2023-04-12T01:10:07.859Z,12.26
2023-04-12T01:13:02.288Z,12.17
2023-04-12T01:15:45.116Z,12.14
2023-04-12T01:18:24.460Z,12.12
2023-04-12T01:21:10.738Z,12.11
2023-04-12T01:24:15.005Z,12.04
2023-04-12T01:26:49.693Z,12.08
2023-04-12T01:29:24.208Z,12.02
2023-04-12T01:32:04.997Z,11.97
2023-04-12T01:34:40.446Z,12.01
2023-04-12T01:37:13.288Z,11.99
2023-04-12T01:39:45.581Z,12.01
2023-04-12T01:42:21.101Z,12.01
2023-04-12T01:44:53.056Z,12.01
2023-04-12T01:47:25.316Z,11.97
2023-04-12T01:50:18.973Z,11.89
2023-04-12T01:53:09.166Z,11.74
2023-04-12T01:55:47.797Z,12.00
2023-04-12T01:58:24.914Z,11.98
2023-04-12T02:00:59.853Z,11.96
2023-04-12T02:03:33.389Z,11.88
2023-04-12T02:06:06.813Z,12.00
2023-04-12T02:08:38.852Z,11.99
2023-04-12T02:11:11.937Z,11.99
2023-04-12T02:13:44.577Z,11.93
2023-04-12T02:16:17.907Z,11.91
2023-04-12T02:18:52.869Z,11.86
2023-04-12T02:21:26.368Z,11.85
2023-04-12T02:23:58.453Z,11.88
2023-04-12T02:26:30.651Z,11.91
2023-04-12T02:29:03.227Z,11.87
2023-04-12T02:31:38.914Z,11.81
2023-04-12T02:34:10.945Z,11.81
2023-04-12T02:36:47.828Z,11.82
2023-04-12T02:39:22.325Z,11.81
2023-04-12T02:41:54.409Z,11.81
2023-04-12T02:44:29.550Z,11.74
2023-04-12T02:47:01.593Z,11.75
2023-04-12T02:49:33.566Z,11.78
2023-04-12T02:52:06.135Z,11.78
2023-04-12T02:54:39.167Z,11.76
2023-04-12T02:57:11.793Z,11.75
2023-04-12T02:59:43.943Z,11.74
2023-04-12T03:02:15.982Z,11.72
2023-04-12T03:04:51.024Z,11.69
2023-04-12T03:07:23.044Z,11.69
2023-04-12T03:09:55.484Z,11.69
2023-04-12T03:12:28.706Z,11.68
2023-04-12T03:15:01.136Z,11.66
2023-04-12T03:17:33.126Z,11.65
2023-04-12T03:20:10.287Z,11.67
2023-04-12T03:22:42.351Z,11.68
2023-04-12T03:25:14.314Z,11.63
2023-04-12T03:27:46.872Z,11.67
2023-04-12T03:30:21.388Z,11.66
2023-04-12T03:32:53.433Z,11.64
2023-04-12T03:35:25.482Z,11.64
2023-04-12T03:37:57.453Z,11.59
2023-04-12T03:40:29.386Z,11.58
2023-04-12T03:43:02.120Z,11.61
2023-04-12T03:45:34.329Z,11.61
2023-04-12T03:48:06.551Z,11.59
2023-04-12T03:50:44.355Z,11.52
2023-04-12T03:53:16.402Z,11.59
2023-04-12T03:55:48.356Z,11.55
2023-04-12T03:58:20.911Z,11.52
2023-04-12T04:00:53.221Z,11.53
2023-04-12T04:03:30.800Z,11.53
2023-04-12T04:06:03.048Z,11.55
2023-04-12T04:08:35.201Z,11.52
2023-04-12T04:11:09.022Z,11.49
2023-04-12T04:13:41.100Z,11.46
2023-04-12T04:16:13.216Z,11.48
2023-04-12T04:18:45.395Z,11.48
2023-04-12T04:21:17.458Z,11.50
2023-04-12T04:23:51.933Z,11.49
2023-04-12T04:26:32.319Z,11.45
2023-04-12T04:29:05.216Z,11.36
2023-04-12T04:31:37.809Z,11.49
2023-04-12T04:34:12.321Z,11.50
2023-04-12T04:36:44.977Z,11.48
2023-04-12T04:39:17.266Z,11.45
2023-04-12T04:41:54.748Z,11.34
2023-04-12T04:44:27.076Z,11.40
2023-04-12T04:47:00.817Z,11.43
2023-04-12T04:49:33.876Z,11.41
2023-04-12T04:52:07.247Z,11.37
2023-04-12T04:54:40.106Z,11.39
2023-04-12T04:57:12.264Z,11.38
2023-04-12T04:59:44.158Z,11.37
2023-04-12T05:02:16.911Z,11.38
2023-04-12T05:04:48.903Z,11.50
2023-04-12T05:07:20.838Z,11.43
2023-04-12T05:09:52.839Z,11.28
2023-04-12T05:12:24.734Z,11.45
2023-04-12T05:15:10.709Z,11.46
2023-04-12T05:17:43.894Z,11.49
2023-04-12T05:20:15.797Z,11.45
2023-04-12T05:22:47.835Z,11.48
2023-04-12T05:25:20.981Z,11.45
2023-04-12T05:27:52.948Z,11.46
2023-04-12T05:30:25.380Z,11.43
2023-04-12T05:32:57.348Z,11.42
2023-04-12T05:35:29.414Z,11.46
2023-04-12T05:38:01.583Z,11.44
2023-04-12T05:40:33.560Z,11.45
2023-04-12T05:43:05.773Z,11.45
2023-04-12T05:45:37.697Z,11.45
2023-04-12T05:48:10.197Z,11.51
2023-04-12T05:50:42.230Z,11.52
2023-04-12T05:53:14.496Z,11.49
2023-04-12T05:55:46.509Z,11.47
2023-04-12T05:58:18.532Z,11.51
2023-04-12T06:00:51.479Z,11.54
2023-04-12T06:03:26.720Z,11.63
2023-04-12T06:05:58.908Z,11.70
2023-04-12T06:08:31.209Z,11.71
2023-04-12T06:11:03.193Z,11.69
2023-04-12T06:13:35.233Z,11.67
2023-04-12T06:16:07.779Z,11.70
2023-04-12T06:18:39.803Z,11.69
2023-04-12T06:21:11.818Z,11.67
2023-04-12T06:23:43.773Z,11.63
2023-04-12T06:26:17.872Z,11.64
2023-04-12T06:28:50.525Z,11.69
2023-04-12T06:31:22.593Z,11.69
2023-04-12T06:33:54.585Z,11.70
2023-04-12T06:36:27.140Z,11.71
2023-04-12T06:38:59.232Z,11.75
2023-04-12T06:41:31.445Z,11.76
2023-04-12T06:44:03.426Z,11.79
2023-04-12T06:46:35.603Z,11.82
2023-04-12T06:49:07.585Z,11.82
2023-04-12T06:51:39.514Z,11.50
2023-04-12T06:54:12.410Z,11.79
2023-04-12T06:56:44.429Z,11.76
2023-04-12T06:59:16.550Z,11.75
2023-04-12T07:01:48.675Z,11.74
2023-04-12T07:04:21.251Z,11.71
2023-04-12T07:06:53.455Z,11.69
2023-04-12T07:09:25.691Z,11.67
2023-04-12T07:11:57.758Z,11.69
2023-04-12T07:14:29.767Z,11.74
2023-04-12T07:17:02.010Z,11.76
2023-04-12T07:19:34.039Z,11.76
2023-04-12T07:22:06.003Z,11.81
2023-04-12T07:24:37.909Z,11.85
2023-04-12T07:27:11.117Z,11.88
2023-04-12T07:29:43.479Z,11.89
2023-04-12T07:32:15.509Z,11.93
2023-04-12T07:34:48.672Z,11.89
2023-04-12T07:37:20.844Z,11.95
2023-04-12T07:39:52.996Z,11.93
2023-04-12T07:42:25.092Z,11.97
2023-04-12T07:44:57.089Z,12.05
2023-04-12T07:47:29.103Z,12.08
2023-04-12T07:50:02.034Z,12.10
2023-04-12T07:52:34.128Z,12.18
2023-04-12T07:55:06.580Z,12.15
2023-04-12T07:57:38.657Z,12.29
2023-04-12T08:00:11.916Z,12.36
2023-04-12T08:02:44.292Z,12.37
2023-04-12T08:05:16.467Z,12.39
2023-04-12T08:07:48.474Z,12.39
2023-04-12T08:10:20.471Z,12.38
2023-04-12T08:12:52.565Z,12.34
2023-04-12T08:15:24.997Z,12.36
2023-04-12T08:17:57.009Z,12.47
2023-04-12T08:20:29.202Z,12.43
2023-04-12T08:23:01.397Z,12.34
2023-04-12T08:25:34.222Z,12.33
2023-04-12T08:28:08.200Z,12.39
2023-04-12T08:30:40.344Z,12.45
2023-04-12T08:33:12.366Z,12.54
2023-04-12T08:35:44.294Z,12.63
2023-04-12T08:38:16.578Z,12.65
2023-04-12T08:40:48.539Z,12.66
2023-04-12T08:43:22.853Z,12.69
2023-04-12T08:45:57.103Z,12.77
2023-04-12T08:48:29.468Z,12.87
2023-04-12T08:51:01.698Z,13.03
2023-04-12T08:53:33.818Z,13.17
2023-04-12T08:56:11.776Z,13.26
2023-04-12T08:58:50.898Z,13.30
2023-04-12T09:01:22.894Z,13.35
2023-04-12T09:03:55.087Z,13.39
2023-04-12T09:06:27.444Z,13.43
2023-04-12T09:09:00.328Z,13.47
2023-04-12T09:11:32.785Z,13.42
2023-04-12T09:14:20.035Z,13.38
2023-04-12T09:16:52.326Z,13.45
2023-04-12T09:19:36.002Z,13.58
2023-04-12T09:22:08.183Z,13.83
2023-04-12T09:24:53.271Z,13.91
2023-04-12T09:27:28.384Z,13.99
2023-04-12T09:30:11.227Z,13.94
2023-04-12T09:32:43.701Z,13.91
2023-04-12T09:35:15.802Z,14.06
2023-04-12T09:37:58.500Z,14.27
2023-04-12T09:40:36.203Z,14.32
2023-04-12T09:43:08.673Z,14.27
2023-04-12T09:45:40.821Z,14.28
2023-04-12T09:48:22.320Z,14.26
2023-04-12T09:51:00.326Z,14.28
2023-04-12T09:53:36.368Z,14.26
2023-04-12T09:56:11.500Z,14.29
2023-04-12T09:58:45.267Z,14.28
2023-04-12T10:01:17.784Z,14.48
2023-04-12T10:03:50.556Z,14.73
2023-04-12T10:06:22.984Z,14.81
2023-04-12T10:08:56.437Z,14.68
2023-04-12T10:11:29.475Z,14.65
2023-04-12T10:14:03.528Z,14.60
2023-04-12T10:16:35.960Z,14.56
2023-04-12T10:19:09.687Z,14.41
2023-04-12T10:21:42.574Z,14.04
2023-04-12T10:24:14.824Z,14.13
2023-04-12T10:26:50.256Z,14.01
2023-04-12T10:29:32.778Z,13.90
2023-04-12T10:32:24.549Z,13.83
2023-04-12T10:34:59.219Z,13.80
2023-04-12T10:38:04.396Z,13.60
2023-04-12T10:40:37.323Z,13.80
2023-04-12T10:43:28.109Z,13.73
2023-04-12T10:46:04.529Z,13.61
2023-04-12T10:48:51.972Z,13.53
2023-04-12T10:51:25.824Z,13.45
2023-04-12T10:54:18.841Z,13.17
2023-04-12T10:56:51.037Z,13.02
2023-04-12T10:59:28.899Z,12.89
2023-04-12T11:02:12.259Z,12.79
2023-04-12T11:05:11.189Z,12.63
2023-04-12T11:07:46.356Z,12.79
2023-04-12T11:10:21.816Z,12.85
2023-04-12T11:13:00.643Z,12.88
2023-04-12T11:15:34.205Z,12.73
2023-04-12T11:18:07.161Z,12.94
2023-04-12T11:20:40.940Z,13.02
2023-04-12T11:23:13.096Z,13.02
2023-04-12T11:25:53.646Z,13.03
2023-04-12T11:28:30.531Z,12.97
2023-04-12T11:31:04.197Z,12.89
2023-04-12T11:33:40.563Z,12.85
2023-04-12T11:36:13.288Z,12.88
2023-04-12T11:38:47.297Z,12.92
2023-04-12T11:41:19.337Z,12.96
2023-04-12T11:43:52.643Z,13.08
2023-04-12T11:46:25.534Z,13.19
2023-04-12T11:48:58.027Z,13.31
2023-04-12T11:51:32.804Z,13.45
2023-04-12T11:54:05.054Z,13.48
2023-04-12T11:56:37.604Z,13.57
2023-04-12T11:59:09.636Z,13.74
2023-04-12T12:01:42.679Z,13.87
2023-04-12T12:04:15.157Z,14.01
2023-04-12T12:06:48.451Z,14.08
2023-04-12T12:09:21.397Z,14.08
2023-04-12T12:11:55.399Z,14.09
2023-04-12T12:14:28.145Z,14.03
2023-04-12T12:17:00.660Z,13.73
2023-04-12T12:19:37.349Z,13.28
2023-04-12T12:22:22.956Z,12.84
2023-04-12T12:25:01.637Z,12.58
2023-04-12T12:27:35.635Z,12.39
2023-04-12T12:30:09.669Z,12.20
2023-04-12T12:32:42.132Z,12.14
2023-04-12T12:35:15.616Z,12.13
2023-04-12T12:37:58.718Z,12.16
2023-04-12T12:40:34.511Z,12.26
2023-04-12T12:43:09.180Z,12.25
2023-04-12T12:45:41.751Z,12.40
2023-04-12T12:48:14.174Z,12.60
2023-04-12T12:50:47.017Z,12.90
2023-04-12T12:53:19.028Z,13.04
2023-04-12T12:55:50.957Z,13.17
2023-04-12T12:58:22.982Z,13.40
2023-04-12T13:00:55.768Z,13.41
2023-04-12T13:03:28.067Z,13.44
2023-04-12T13:06:00.508Z,13.40
2023-04-12T13:08:35.372Z,13.33
2023-04-12T13:11:07.618Z,13.33
2023-04-12T13:13:39.554Z,13.29
2023-04-12T13:16:11.672Z,13.24
2023-04-12T13:18:44.363Z,13.19
2023-04-12T13:21:16.401Z,13.13
2023-04-12T13:23:48.360Z,13.03
2023-04-12T13:26:20.903Z,12.84
2023-04-12T13:28:52.866Z,12.47
2023-04-12T13:31:24.873Z,12.20
2023-04-12T13:33:56.863Z,12.02
2023-04-12T13:36:28.899Z,12.01
2023-04-12T13:39:01.009Z,12.11
2023-04-12T13:41:34.280Z,12.21
2023-04-12T13:44:06.533Z,12.29
2023-04-12T13:46:38.563Z,12.37
2023-04-12T13:49:10.834Z,12.51
2023-04-12T13:51:42.807Z,12.59
2023-04-12T13:54:15.960Z,12.57
2023-04-12T13:56:48.361Z,12.60
2023-04-12T13:59:20.388Z,12.81
2023-04-12T14:01:53.164Z,12.94
2023-04-12T14:04:30.044Z,13.05
2023-04-12T14:07:02.083Z,13.15
2023-04-12T14:09:34.139Z,13.22
2023-04-12T14:12:06.120Z,13.30
2023-04-12T14:14:38.070Z,13.31
2023-04-12T14:17:10.041Z,13.39
2023-04-12T14:19:42.005Z,13.43
2023-04-12T14:22:13.927Z,13.45
2023-04-12T14:24:46.382Z,13.53
2023-04-12T14:27:18.427Z,13.53
2023-04-12T14:29:50.465Z,13.46
2023-04-12T14:32:22.778Z,13.29
2023-04-12T14:34:54.878Z,13.11
2023-04-12T14:37:27.454Z,13.01
2023-04-12T14:39:59.457Z,12.87
2023-04-12T14:42:31.386Z,12.60
2023-04-12T14:45:05.469Z,12.25
2023-04-12T14:47:37.412Z,11.93
2023-04-12T14:50:09.728Z,11.66
2023-04-12T14:52:41.708Z,11.55
2023-04-12T14:55:13.766Z,11.43
2023-04-12T14:57:45.731Z,11.56
2023-04-12T15:00:18.241Z,11.58
2023-04-12T15:02:50.470Z,11.58
2023-04-12T15:05:22.805Z,11.61
2023-04-12T15:07:54.933Z,11.67
2023-04-12T15:10:28.297Z,11.71
2023-04-12T15:13:00.384Z,11.79
2023-04-12T15:15:32.604Z,11.84
2023-04-12T15:18:04.710Z,11.89
2023-04-12T15:20:37.087Z,11.92
2023-04-12T15:23:09.101Z,11.94
2023-04-12T15:25:41.353Z,11.90
2023-04-12T15:28:13.240Z,12.01
2023-04-12T15:30:45.244Z,12.04
2023-04-12T15:33:17.264Z,12.10
2023-04-12T15:35:50.519Z,12.16
2023-04-12T15:38:24.724Z,12.23
2023-04-12T15:41:01.988Z,12.31
2023-04-12T15:43:34.066Z,12.36
2023-04-12T15:46:06.546Z,12.59
2023-04-12T15:48:38.859Z,12.83
2023-04-12T15:51:11.010Z,12.79
2023-04-12T15:53:43.506Z,13.11
2023-04-12T15:56:19.947Z,13.26
2023-04-12T15:58:53.556Z,13.41
2023-04-12T16:01:25.972Z,13.48
2023-04-12T16:03:58.138Z,13.58
2023-04-12T16:06:34.695Z,13.63
2023-04-12T16:09:06.844Z,13.74
2023-04-12T16:11:38.927Z,13.66
2023-04-12T16:14:10.903Z,13.61
2023-04-12T16:16:43.308Z,13.52
2023-04-12T16:19:15.347Z,13.46
2023-04-12T16:21:47.416Z,13.43
2023-04-12T16:24:19.358Z,13.42
2023-04-12T16:26:52.145Z,13.37
2023-04-12T16:29:24.551Z,13.44
2023-04-12T16:31:56.561Z,13.51
2023-04-12T16:34:28.565Z,13.57
2023-04-12T16:37:00.614Z,13.64
2023-04-12T16:39:34.038Z,13.73
2023-04-12T16:42:07.524Z,13.66
2023-04-12T16:44:39.512Z,13.60
2023-04-12T16:47:11.640Z,13.59
2023-04-12T16:49:43.704Z,13.65
2023-04-12T16:52:16.518Z,13.66
2023-04-12T16:54:48.474Z,13.63
2023-04-12T16:57:20.607Z,13.64
2023-04-12T16:59:52.702Z,13.73
2023-04-12T17:02:25.140Z,13.73
2023-04-12T17:04:57.290Z,13.68
2023-04-12T17:07:29.253Z,13.73
2023-04-12T17:10:01.438Z,13.73
2023-04-12T17:12:33.406Z,13.73
2023-04-12T17:15:06.282Z,13.77
2023-04-12T17:17:38.520Z,13.83
2023-04-12T17:20:11.627Z,13.77
2023-04-12T17:22:43.847Z,13.73
2023-04-12T17:25:17.764Z,13.69
2023-04-12T17:27:51.175Z,13.66
2023-04-12T17:30:24.019Z,13.66
2023-04-12T17:32:56.525Z,13.66
2023-04-12T17:35:28.930Z,13.67
2023-04-12T17:38:01.085Z,13.65
2023-04-12T17:40:33.179Z,13.67
2023-04-12T17:43:05.390Z,13.69
2023-04-12T17:45:37.558Z,13.66
2023-04-12T17:48:11.324Z,13.63
2023-04-12T17:50:45.318Z,13.60
2023-04-12T17:53:17.433Z,13.62
2023-04-12T17:55:50.738Z,13.59
2023-04-12T17:58:22.870Z,13.55
2023-04-12T18:00:54.793Z,13.48
2023-04-12T18:03:27.512Z,13.45
2023-04-12T18:06:00.801Z,13.42
2023-04-12T18:08:32.831Z,13.37
2023-04-12T18:11:06.555Z,13.34
2023-04-12T18:13:38.517Z,13.27
2023-04-12T18:16:10.501Z,13.23
2023-04-12T18:18:42.506Z,13.15
2023-04-12T18:21:16.162Z,13.03
2023-04-12T18:23:48.401Z,13.02
2023-04-12T18:26:21.844Z,12.97
2023-04-12T18:28:53.969Z,12.95
2023-04-12T18:31:26.200Z,12.88
2023-04-12T18:33:58.815Z,12.81
2023-04-12T18:36:31.689Z,12.73
2023-04-12T18:39:08.063Z,12.47
2023-04-12T18:41:43.174Z,12.54
2023-04-12T18:44:15.556Z,12.55
2023-04-12T18:46:47.495Z,12.87
2023-04-12T18:49:19.424Z,12.60
2023-04-12T18:51:53.249Z,12.54
2023-04-12T18:54:27.593Z,12.48
2023-04-12T18:57:01.860Z,12.44
2023-04-12T18:59:33.886Z,12.36
2023-04-12T19:02:06.486Z,12.37
2023-04-12T19:04:41.189Z,12.34
2023-04-12T19:07:13.089Z,12.18
2023-04-12T19:09:47.113Z,12.26
2023-04-12T19:12:19.244Z,12.27
2023-04-12T19:14:51.169Z,12.22
2023-04-12T19:17:24.931Z,12.17
2023-04-12T19:19:57.611Z,12.13
2023-04-12T19:22:29.542Z,12.09
2023-04-12T19:25:01.888Z,12.05
2023-04-12T19:27:33.958Z,12.03
2023-04-12T19:30:07.232Z,11.97
2023-04-12T19:32:40.675Z,12.01
2023-04-12T19:35:14.051Z,11.97
2023-04-12T19:37:47.231Z,11.96
2023-04-12T19:40:19.190Z,11.93
2023-04-12T19:42:51.918Z,11.84
2023-04-12T19:45:26.237Z,11.79
2023-04-12T19:47:58.434Z,11.67
2023-04-12T19:50:31.170Z,11.69
2023-04-12T19:53:03.817Z,11.68
2023-04-12T19:55:35.892Z,11.63
2023-04-12T19:58:08.138Z,11.55
2023-04-12T20:00:41.349Z,11.52
2023-04-12T20:03:13.462Z,11.52
2023-04-12T20:05:46.189Z,11.52
2023-04-12T20:08:18.267Z,11.51
2023-04-12T20:10:50.657Z,11.45
2023-04-12T20:13:22.827Z,11.41
2023-04-12T20:15:55.343Z,11.43
2023-04-12T20:18:28.568Z,11.40
2023-04-12T20:21:00.609Z,11.39
2023-04-12T20:23:32.561Z,11.34
2023-04-12T20:26:05.540Z,11.26
2023-04-12T20:28:38.479Z,11.17
2023-04-12T20:31:12.817Z,11.17
2023-04-12T20:33:44.991Z,11.19
2023-04-12T20:36:17.420Z,11.01
2023-04-12T20:38:53.856Z,11.10
2023-04-12T20:41:25.784Z,11.06
2023-04-12T20:43:59.533Z,11.03
2023-04-12T20:46:31.525Z,11.01
2023-04-12T20:49:05.233Z,10.99
2023-04-12T20:51:37.711Z,10.94
2023-04-12T20:54:09.686Z,10.91
2023-04-12T20:56:41.997Z,10.85
2023-04-12T20:59:14.120Z,10.78
2023-04-12T21:01:46.974Z,10.80
2023-04-12T21:04:20.133Z,10.77
2023-04-12T21:06:55.539Z,10.78
2023-04-12T21:09:27.890Z,10.74
2023-04-12T21:12:02.746Z,10.75
2023-04-12T21:14:37.579Z,10.76
2023-04-12T21:17:09.669Z,10.75
2023-04-12T21:19:42.026Z,10.71
2023-04-12T21:22:14.013Z,10.69
2023-04-12T21:24:45.981Z,10.67
2023-04-12T21:27:17.956Z,10.65
2023-04-12T21:29:50.198Z,10.66
2023-04-12T21:32:22.254Z,10.62
2023-04-12T21:34:54.774Z,10.64
2023-04-12T21:37:26.741Z,10.62
2023-04-12T21:39:58.705Z,10.63
2023-04-12T21:42:30.648Z,10.64
2023-04-12T21:45:03.575Z,10.63
2023-04-12T21:47:36.891Z,10.64
2023-04-12T21:50:10.779Z,10.61
2023-04-12T21:52:44.144Z,10.62
2023-04-12T21:55:16.119Z,10.64
2023-04-12T21:57:48.213Z,10.64
2023-04-12T22:00:20.326Z,10.64
2023-04-12T22:02:52.452Z,10.64
2023-04-12T22:05:24.610Z,10.60
2023-04-12T22:07:57.867Z,10.63
2023-04-12T22:10:32.450Z,10.63
2023-04-12T22:13:04.381Z,10.61
2023-04-12T22:15:37.452Z,10.57
2023-04-12T22:18:10.817Z,10.62
2023-04-12T22:20:42.755Z,10.56
2023-04-12T22:23:18.261Z,10.56
2023-04-12T22:25:50.713Z,10.55
2023-04-12T22:28:22.685Z,10.51
2023-04-12T22:30:57.182Z,10.54
2023-04-12T22:33:30.085Z,10.55
2023-04-12T22:36:02.202Z,10.53
2023-04-12T22:38:38.486Z,10.52
2023-04-12T22:41:10.446Z,10.47
2023-04-12T22:43:42.435Z,10.53
2023-04-12T22:46:18.696Z,10.52
2023-04-12T22:48:50.777Z,10.49
2023-04-12T22:51:24.735Z,10.45
2023-04-12T22:53:57.359Z,10.33
2023-04-12T22:56:30.227Z,10.38
2023-04-12T22:59:02.777Z,10.29
2023-04-12T23:01:34.801Z,10.20
2023-04-12T23:04:06.862Z,10.21
2023-04-12T23:06:41.621Z,10.20
2023-04-12T23:09:13.615Z,10.21
2023-04-12T23:11:47.373Z,10.19
2023-04-12T23:14:19.367Z,10.09
2023-04-12T23:16:51.730Z,10.05
2023-04-12T23:19:23.874Z,10.06
2023-04-12T23:21:56.036Z,10.04
2023-04-12T23:24:28.533Z,10.00
2023-04-12T23:27:00.440Z,10.03
2023-04-12T23:29:32.410Z,9.97
2023-04-12T23:32:04.554Z,9.93
2023-04-12T23:34:37.152Z,9.87
2023-04-12T23:37:11.020Z,9.83
2023-04-12T23:39:43.180Z,9.80
2023-04-12T23:42:15.102Z,9.77
2023-04-12T23:44:47.481Z,9.77
2023-04-12T23:47:19.397Z,9.76
2023-04-12T23:49:51.735Z,9.74
2023-04-12T23:52:23.699Z,9.50
2023-04-12T23:54:55.895Z,9.68
2023-04-12T23:57:28.122Z,9.64
